< < Back
Terminal Aerodrome Forecast


Current Version              Previous Versions:   1  2  3  4  5  6  7  8  9  

Terminal Aerodrome Forecast

222
FTUS42 KJAX 271100
TAFJAX
TAF
KJAX 271120Z 2712/2812 VRB04KT P6SM SKC
     FM271500 03008KT P6SM FEW040
     FM280000 08004KT P6SM FEW250=



Latest METAR

602
SAUS80 KWBC 281100 RRA
MTRJAX
METAR KJAX 281056Z 00000KT 10SM FEW150 FEW250 18/18 A3002 RMK AO2 SLP165
T01830178


USA.gov is the U.S. government's official web portal to all federal, state and local government web resources and services.